sensor_id;sensor_type;location;lat;lon;timestamp;pressure;altitude;pressure_sealevel;temperature
16956;BMP180;8594;52.052;8.354;2023-08-06T00:01:01;99706.00;;;19.50
16956;BMP180;8594;52.052;8.354;2023-08-06T00:03:28;99696.00;;;19.60
16956;BMP180;8594;52.052;8.354;2023-08-06T00:05:55;99700.00;;;19.60
16956;BMP180;8594;52.052;8.354;2023-08-06T00:08:22;99704.00;;;19.50
16956;BMP180;8594;52.052;8.354;2023-08-06T00:10:50;99702.00;;;19.50
16956;BMP180;8594;52.052;8.354;2023-08-06T00:13:17;99704.00;;;19.40
16956;BMP180;8594;52.052;8.354;2023-08-06T00:15:44;99713.00;;;19.50
16956;BMP180;8594;52.052;8.354;2023-08-06T00:18:10;99699.00;;;19.50
16956;BMP180;8594;52.052;8.354;2023-08-06T00:20:39;99694.00;;;19.60
16956;BMP180;8594;52.052;8.354;2023-08-06T00:23:07;99696.00;;;19.70
16956;BMP180;8594;52.052;8.354;2023-08-06T00:25:33;99694.00;;;19.70
16956;BMP180;8594;52.052;8.354;2023-08-06T00:28:02;99683.00;;;19.60
16956;BMP180;8594;52.052;8.354;2023-08-06T00:30:29;99682.00;;;19.20
16956;BMP180;8594;52.052;8.354;2023-08-06T00:32:55;99691.00;;;19.40
16956;BMP180;8594;52.052;8.354;2023-08-06T00:35:22;99687.00;;;19.50
16956;BMP180;8594;52.052;8.354;2023-08-06T00:37:49;99686.00;;;19.20
16956;BMP180;8594;52.052;8.354;2023-08-06T00:40:16;99689.00;;;19.50
16956;BMP180;8594;52.052;8.354;2023-08-06T00:42:46;99693.00;;;19.40
16956;BMP180;8594;52.052;8.354;2023-08-06T00:45:14;99685.00;;;19.20
16956;BMP180;8594;52.052;8.354;2023-08-06T00:47:42;99680.00;;;19.50
16956;BMP180;8594;52.052;8.354;2023-08-06T00:50:09;99683.00;;;19.30
16956;BMP180;8594;52.052;8.354;2023-08-06T00:52:37;99677.00;;;19.20
16956;BMP180;8594;52.052;8.354;2023-08-06T00:55:05;99674.00;;;19.10
16956;BMP180;8594;52.052;8.354;2023-08-06T00:57:32;99664.00;;;19.10
16956;BMP180;8594;52.052;8.354;2023-08-06T00:59:59;99659.00;;;19.10
16956;BMP180;8594;52.052;8.354;2023-08-06T01:02:28;99658.00;;;19.30
16956;BMP180;8594;52.052;8.354;2023-08-06T01:04:54;99653.00;;;19.10
16956;BMP180;8594;52.052;8.354;2023-08-06T01:07:37;99655.00;;;18.90
16956;BMP180;8594;52.052;8.354;2023-08-06T01:10:23;99651.00;;;19.20
16956;BMP180;8594;52.052;8.354;2023-08-06T01:13:06;99653.00;;;19.30
16956;BMP180;8594;52.052;8.354;2023-08-06T01:15:41;99648.00;;;19.30
16956;BMP180;8594;52.052;8.354;2023-08-06T01:18:10;99635.00;;;19.60
16956;BMP180;8594;52.052;8.354;2023-08-06T01:20:38;99639.00;;;19.60
16956;BMP180;8594;52.052;8.354;2023-08-06T01:23:05;99644.00;;;19.30
16956;BMP180;8594;52.052;8.354;2023-08-06T01:25:39;99646.00;;;19.30
16956;BMP180;8594;52.052;8.354;2023-08-06T01:28:20;99641.00;;;19.60
16956;BMP180;8594;52.052;8.354;2023-08-06T01:30:51;99643.00;;;19.50
16956;BMP180;8594;52.052;8.354;2023-08-06T01:33:22;99644.00;;;19.40
16956;BMP180;8594;52.052;8.354;2023-08-06T01:35:53;99636.00;;;19.40
16956;BMP180;8594;52.052;8.354;2023-08-06T01:38:20;99633.00;;;19.40
16956;BMP180;8594;52.052;8.354;2023-08-06T01:40:47;99633.00;;;19.70
16956;BMP180;8594;52.052;8.354;2023-08-06T01:43:14;99637.00;;;19.70
16956;BMP180;8594;52.052;8.354;2023-08-06T01:45:41;99630.00;;;20.00
16956;BMP180;8594;52.052;8.354;2023-08-06T01:48:07;99638.00;;;20.10
16956;BMP180;8594;52.052;8.354;2023-08-06T01:50:34;99633.00;;;20.10
16956;BMP180;8594;52.052;8.354;2023-08-06T01:53:02;99629.00;;;20.20
16956;BMP180;8594;52.052;8.354;2023-08-06T01:55:29;99622.00;;;20.00
16956;BMP180;8594;52.052;8.354;2023-08-06T01:57:56;99615.00;;;20.10
16956;BMP180;8594;52.052;8.354;2023-08-06T02:00:23;99615.00;;;20.10
16956;BMP180;8594;52.052;8.354;2023-08-06T02:02:50;99615.00;;;20.10
16956;BMP180;8594;52.052;8.354;2023-08-06T02:05:17;99602.00;;;20.10
16956;BMP180;8594;52.052;8.354;2023-08-06T02:07:43;99596.00;;;20.00
16956;BMP180;8594;52.052;8.354;2023-08-06T02:10:12;99605.00;;;19.80
16956;BMP180;8594;52.052;8.354;2023-08-06T02:12:38;99608.00;;;19.50
16956;BMP180;8594;52.052;8.354;2023-08-06T02:15:06;99601.00;;;19.80
16956;BMP180;8594;52.052;8.354;2023-08-06T02:17:33;99597.00;;;19.90
16956;BMP180;8594;52.052;8.354;2023-08-06T02:20:00;99596.00;;;19.60
16956;BMP180;8594;52.052;8.354;2023-08-06T02:22:27;99592.00;;;19.40
16956;BMP180;8594;52.052;8.354;2023-08-06T02:24:54;99594.00;;;19.50
16956;BMP180;8594;52.052;8.354;2023-08-06T02:27:22;99591.00;;;19.20
16956;BMP180;8594;52.052;8.354;2023-08-06T02:29:49;99596.00;;;19.20
16956;BMP180;8594;52.052;8.354;2023-08-06T02:32:16;99597.00;;;19.50
16956;BMP180;8594;52.052;8.354;2023-08-06T02:34:43;99597.00;;;19.30
16956;BMP180;8594;52.052;8.354;2023-08-06T02:37:10;99595.00;;;19.60
16956;BMP180;8594;52.052;8.354;2023-08-06T02:39:36;99595.00;;;19.30
16956;BMP180;8594;52.052;8.354;2023-08-06T02:42:06;99589.00;;;19.70
16956;BMP180;8594;52.052;8.354;2023-08-06T02:44:34;99583.00;;;19.40
16956;BMP180;8594;52.052;8.354;2023-08-06T02:47:01;99579.00;;;19.40
16956;BMP180;8594;52.052;8.354;2023-08-06T02:49:28;99573.00;;;19.20
16956;BMP180;8594;52.052;8.354;2023-08-06T02:51:55;99575.00;;;19.10
16956;BMP180;8594;52.052;8.354;2023-08-06T02:54:22;99569.00;;;19.30
16956;BMP180;8594;52.052;8.354;2023-08-06T02:56:49;99560.00;;;19.60
16956;BMP180;8594;52.052;8.354;2023-08-06T02:59:15;99567.00;;;19.50
16956;BMP180;8594;52.052;8.354;2023-08-06T03:01:44;99560.00;;;19.60
16956;BMP180;8594;52.052;8.354;2023-08-06T03:04:10;99554.00;;;19.50
16956;BMP180;8594;52.052;8.354;2023-08-06T03:06:37;99553.00;;;19.50
16956;BMP180;8594;52.052;8.354;2023-08-06T03:09:04;99538.00;;;19.20
16956;BMP180;8594;52.052;8.354;2023-08-06T03:11:31;99542.00;;;19.30
16956;BMP180;8594;52.052;8.354;2023-08-06T03:13:58;99545.00;;;19.00
16956;BMP180;8594;52.052;8.354;2023-08-06T03:16:24;99537.00;;;19.50
16956;BMP180;8594;52.052;8.354;2023-08-06T03:18:52;99542.00;;;19.40
16956;BMP180;8594;52.052;8.354;2023-08-06T03:21:19;99533.00;;;19.50
16956;BMP180;8594;52.052;8.354;2023-08-06T03:23:47;99532.00;;;19.30
16956;BMP180;8594;52.052;8.354;2023-08-06T03:26:14;99539.00;;;19.10
16956;BMP180;8594;52.052;8.354;2023-08-06T03:28:41;99534.00;;;19.10
16956;BMP180;8594;52.052;8.354;2023-08-06T03:31:09;99534.00;;;19.30
16956;BMP180;8594;52.052;8.354;2023-08-06T03:33:36;99536.00;;;19.00
16956;BMP180;8594;52.052;8.354;2023-08-06T03:36:04;99532.00;;;19.20
16956;BMP180;8594;52.052;8.354;2023-08-06T03:38:31;99531.00;;;19.70
16956;BMP180;8594;52.052;8.354;2023-08-06T03:40:58;99524.00;;;19.60
16956;BMP180;8594;52.052;8.354;2023-08-06T03:43:24;99530.00;;;19.40
16956;BMP180;8594;52.052;8.354;2023-08-06T03:45:51;99517.00;;;19.20
16956;BMP180;8594;52.052;8.354;2023-08-06T03:48:18;99522.00;;;19.50
16956;BMP180;8594;52.052;8.354;2023-08-06T03:50:45;99519.00;;;19.60
16956;BMP180;8594;52.052;8.354;2023-08-06T03:53:13;99524.00;;;19.60
16956;BMP180;8594;52.052;8.354;2023-08-06T03:55:40;99522.00;;;19.40
16956;BMP180;8594;52.052;8.354;2023-08-06T03:58:07;99520.00;;;19.20
16956;BMP180;8594;52.052;8.354;2023-08-06T04:00:34;99511.00;;;19.30
16956;BMP180;8594;52.052;8.354;2023-08-06T04:03:00;99514.00;;;19.40
16956;BMP180;8594;52.052;8.354;2023-08-06T04:05:27;99515.00;;;19.40
16956;BMP180;8594;52.052;8.354;2023-08-06T04:07:54;99510.00;;;19.50
16956;BMP180;8594;52.052;8.354;2023-08-06T04:10:22;99516.00;;;19.30
16956;BMP180;8594;52.052;8.354;2023-08-06T04:12:49;99505.00;;;19.60
16956;BMP180;8594;52.052;8.354;2023-08-06T04:15:16;99509.00;;;19.80
16956;BMP180;8594;52.052;8.354;2023-08-06T04:17:43;99507.00;;;19.50
16956;BMP180;8594;52.052;8.354;2023-08-06T04:20:10;99512.00;;;19.60
16956;BMP180;8594;52.052;8.354;2023-08-06T04:22:37;99518.00;;;19.50
16956;BMP180;8594;52.052;8.354;2023-08-06T04:25:05;99504.00;;;19.50
16956;BMP180;8594;52.052;8.354;2023-08-06T04:27:33;99510.00;;;19.30
16956;BMP180;8594;52.052;8.354;2023-08-06T04:30:00;99507.00;;;19.20
16956;BMP180;8594;52.052;8.354;2023-08-06T04:32:27;99505.00;;;19.60
16956;BMP180;8594;52.052;8.354;2023-08-06T04:34:55;99510.00;;;19.60
16956;BMP180;8594;52.052;8.354;2023-08-06T04:37:23;99514.00;;;19.40
16956;BMP180;8594;52.052;8.354;2023-08-06T04:39:49;99524.00;;;19.00
16956;BMP180;8594;52.052;8.354;2023-08-06T04:42:16;99513.00;;;19.10
16956;BMP180;8594;52.052;8.354;2023-08-06T04:44:44;99518.00;;;19.50
16956;BMP180;8594;52.052;8.354;2023-08-06T04:47:11;99516.00;;;19.70
16956;BMP180;8594;52.052;8.354;2023-08-06T04:49:38;99521.00;;;19.40
16956;BMP180;8594;52.052;8.354;2023-08-06T04:52:06;99529.00;;;19.00
16956;BMP180;8594;52.052;8.354;2023-08-06T04:54:33;99519.00;;;19.00
16956;BMP180;8594;52.052;8.354;2023-08-06T04:57:00;99527.00;;;19.20
16956;BMP180;8594;52.052;8.354;2023-08-06T04:59:27;99523.00;;;19.00
16956;BMP180;8594;52.052;8.354;2023-08-06T05:01:55;99518.00;;;19.10
16956;BMP180;8594;52.052;8.354;2023-08-06T05:04:22;99526.00;;;18.90
16956;BMP180;8594;52.052;8.354;2023-08-06T05:06:48;99521.00;;;18.80
16956;BMP180;8594;52.052;8.354;2023-08-06T05:09:15;99529.00;;;19.00
16956;BMP180;8594;52.052;8.354;2023-08-06T05:11:42;99522.00;;;19.00
16956;BMP180;8594;52.052;8.354;2023-08-06T05:14:09;99509.00;;;18.80
16956;BMP180;8594;52.052;8.354;2023-08-06T05:16:36;99523.00;;;19.00
16956;BMP180;8594;52.052;8.354;2023-08-06T05:19:04;99517.00;;;19.10
16956;BMP180;8594;52.052;8.354;2023-08-06T05:21:31;99527.00;;;19.40
16956;BMP180;8594;52.052;8.354;2023-08-06T05:23:57;99530.00;;;19.30
16956;BMP180;8594;52.052;8.354;2023-08-06T05:26:24;99538.00;;;19.30
16956;BMP180;8594;52.052;8.354;2023-08-06T05:28:51;99526.00;;;19.60
16956;BMP180;8594;52.052;8.354;2023-08-06T05:31:18;99528.00;;;19.50
16956;BMP180;8594;52.052;8.354;2023-08-06T05:33:45;99534.00;;;19.20
16956;BMP180;8594;52.052;8.354;2023-08-06T05:36:13;99535.00;;;19.40
16956;BMP180;8594;52.052;8.354;2023-08-06T05:38:40;99535.00;;;19.60
16956;BMP180;8594;52.052;8.354;2023-08-06T05:41:07;99529.00;;;19.90
16956;BMP180;8594;52.052;8.354;2023-08-06T05:43:33;99524.00;;;19.70
16956;BMP180;8594;52.052;8.354;2023-08-06T05:46:00;99529.00;;;20.00
16956;BMP180;8594;52.052;8.354;2023-08-06T05:48:27;99527.00;;;20.30
16956;BMP180;8594;52.052;8.354;2023-08-06T05:50:54;99517.00;;;20.40
16956;BMP180;8594;52.052;8.354;2023-08-06T05:53:22;99519.00;;;21.00
16956;BMP180;8594;52.052;8.354;2023-08-06T05:55:50;99520.00;;;21.00
16956;BMP180;8594;52.052;8.354;2023-08-06T05:58:17;99522.00;;;21.30
16956;BMP180;8594;52.052;8.354;2023-08-06T06:00:45;99511.00;;;21.40
16956;BMP180;8594;52.052;8.354;2023-08-06T06:03:12;99519.00;;;21.60
16956;BMP180;8594;52.052;8.354;2023-08-06T06:05:39;99514.00;;;21.60
16956;BMP180;8594;52.052;8.354;2023-08-06T06:08:06;99514.00;;;22.10
16956;BMP180;8594;52.052;8.354;2023-08-06T06:10:35;99518.00;;;22.60
16956;BMP180;8594;52.052;8.354;2023-08-06T06:13:02;99528.00;;;22.30
16956;BMP180;8594;52.052;8.354;2023-08-06T06:15:28;99522.00;;;22.40
16956;BMP180;8594;52.052;8.354;2023-08-06T06:17:55;99518.00;;;22.40
16956;BMP180;8594;52.052;8.354;2023-08-06T06:20:23;99511.00;;;22.60
16956;BMP180;8594;52.052;8.354;2023-08-06T06:22:49;99512.00;;;23.10
16956;BMP180;8594;52.052;8.354;2023-08-06T06:25:16;99512.00;;;23.10
16956;BMP180;8594;52.052;8.354;2023-08-06T06:27:44;99515.00;;;22.80
16956;BMP180;8594;52.052;8.354;2023-08-06T06:30:11;99519.00;;;22.70
16956;BMP180;8594;52.052;8.354;2023-08-06T06:32:38;99530.00;;;23.10
16956;BMP180;8594;52.052;8.354;2023-08-06T06:35:07;99527.00;;;22.30
16956;BMP180;8594;52.052;8.354;2023-08-06T06:37:34;99529.00;;;22.30
16956;BMP180;8594;52.052;8.354;2023-08-06T06:40:01;99527.00;;;22.50
16956;BMP180;8594;52.052;8.354;2023-08-06T06:42:29;99529.00;;;22.30
16956;BMP180;8594;52.052;8.354;2023-08-06T06:44:57;99527.00;;;22.30
16956;BMP180;8594;52.052;8.354;2023-08-06T06:47:24;99523.00;;;22.20
16956;BMP180;8594;52.052;8.354;2023-08-06T06:49:51;99525.00;;;22.40
16956;BMP180;8594;52.052;8.354;2023-08-06T06:52:18;99523.00;;;22.20
16956;BMP180;8594;52.052;8.354;2023-08-06T06:54:44;99527.00;;;22.50
16956;BMP180;8594;52.052;8.354;2023-08-06T06:57:11;99527.00;;;22.50
16956;BMP180;8594;52.052;8.354;2023-08-06T06:59:38;99523.00;;;22.40
16956;BMP180;8594;52.052;8.354;2023-08-06T07:02:07;99521.00;;;22.60
16956;BMP180;8594;52.052;8.354;2023-08-06T07:04:34;99519.00;;;21.80
16956;BMP180;8594;52.052;8.354;2023-08-06T07:07:00;99516.00;;;22.10
16956;BMP180;8594;52.052;8.354;2023-08-06T07:09:27;99531.00;;;22.20
16956;BMP180;8594;52.052;8.354;2023-08-06T07:11:54;99521.00;;;22.30
16956;BMP180;8594;52.052;8.354;2023-08-06T07:14:21;99517.00;;;22.50
16956;BMP180;8594;52.052;8.354;2023-08-06T07:16:48;99525.00;;;22.50
16956;BMP180;8594;52.052;8.354;2023-08-06T07:19:16;99523.00;;;22.50
16956;BMP180;8594;52.052;8.354;2023-08-06T07:21:44;99515.00;;;22.40
16956;BMP180;8594;52.052;8.354;2023-08-06T07:24:11;99518.00;;;22.90
16956;BMP180;8594;52.052;8.354;2023-08-06T07:26:38;99512.00;;;23.10
16956;BMP180;8594;52.052;8.354;2023-08-06T07:29:05;99512.00;;;23.60
16956;BMP180;8594;52.052;8.354;2023-08-06T07:31:32;99519.00;;;24.10
16956;BMP180;8594;52.052;8.354;2023-08-06T07:33:59;99510.00;;;24.10
16956;BMP180;8594;52.052;8.354;2023-08-06T07:36:27;99511.00;;;24.00
16956;BMP180;8594;52.052;8.354;2023-08-06T07:38:54;99501.00;;;24.50
16956;BMP180;8594;52.052;8.354;2023-08-06T07:41:22;99511.00;;;24.80
16956;BMP180;8594;52.052;8.354;2023-08-06T07:43:49;99511.00;;;24.70
16956;BMP180;8594;52.052;8.354;2023-08-06T07:46:16;99518.00;;;24.60
16956;BMP180;8594;52.052;8.354;2023-08-06T07:48:43;99523.00;;;23.90
16956;BMP180;8594;52.052;8.354;2023-08-06T07:51:10;99523.00;;;24.10
16956;BMP180;8594;52.052;8.354;2023-08-06T07:53:38;99524.00;;;23.50
16956;BMP180;8594;52.052;8.354;2023-08-06T07:56:05;99522.00;;;23.70
16956;BMP180;8594;52.052;8.354;2023-08-06T07:58:31;99526.00;;;24.20
16956;BMP180;8594;52.052;8.354;2023-08-06T08:00:58;99520.00;;;23.70
16956;BMP180;8594;52.052;8.354;2023-08-06T08:03:25;99512.00;;;23.50
16956;BMP180;8594;52.052;8.354;2023-08-06T08:05:55;99513.00;;;23.40
16956;BMP180;8594;52.052;8.354;2023-08-06T08:08:24;99511.00;;;23.90
16956;BMP180;8594;52.052;8.354;2023-08-06T08:10:52;99510.00;;;23.30
16956;BMP180;8594;52.052;8.354;2023-08-06T08:13:20;99514.00;;;23.40
16956;BMP180;8594;52.052;8.354;2023-08-06T08:15:47;99512.00;;;23.30
16956;BMP180;8594;52.052;8.354;2023-08-06T08:18:14;99510.00;;;23.30
16956;BMP180;8594;52.052;8.354;2023-08-06T08:20:41;99513.00;;;23.40
16956;BMP180;8594;52.052;8.354;2023-08-06T08:23:08;99511.00;;;23.20
16956;BMP180;8594;52.052;8.354;2023-08-06T08:25:34;99514.00;;;24.20
16956;BMP180;8594;52.052;8.354;2023-08-06T08:28:03;99511.00;;;23.60
16956;BMP180;8594;52.052;8.354;2023-08-06T08:30:30;99514.00;;;23.70
16956;BMP180;8594;52.052;8.354;2023-08-06T08:32:56;99517.00;;;23.50
16956;BMP180;8594;52.052;8.354;2023-08-06T08:35:23;99523.00;;;23.50
16956;BMP180;8594;52.052;8.354;2023-08-06T08:37:50;99519.00;;;23.20
16956;BMP180;8594;52.052;8.354;2023-08-06T08:40:18;99512.00;;;23.60
16956;BMP180;8594;52.052;8.354;2023-08-06T08:42:45;99523.00;;;23.50
16956;BMP180;8594;52.052;8.354;2023-08-06T08:45:14;99512.00;;;23.60
16956;BMP180;8594;52.052;8.354;2023-08-06T08:47:42;99501.00;;;24.10
16956;BMP180;8594;52.052;8.354;2023-08-06T08:50:10;99508.00;;;23.80
16956;BMP180;8594;52.052;8.354;2023-08-06T08:52:39;99514.00;;;23.60
16956;BMP180;8594;52.052;8.354;2023-08-06T08:55:08;99518.00;;;23.80
16956;BMP180;8594;52.052;8.354;2023-08-06T08:57:35;99518.00;;;23.70
16956;BMP180;8594;52.052;8.354;2023-08-06T09:00:03;99517.00;;;23.80
16956;BMP180;8594;52.052;8.354;2023-08-06T09:02:33;99528.00;;;23.80
16956;BMP180;8594;52.052;8.354;2023-08-06T09:05:03;99526.00;;;23.70
16956;BMP180;8594;52.052;8.354;2023-08-06T09:07:39;99522.00;;;23.90
16956;BMP180;8594;52.052;8.354;2023-08-06T09:10:11;99525.00;;;23.80
16956;BMP180;8594;52.052;8.354;2023-08-06T09:12:39;99526.00;;;23.80
16956;BMP180;8594;52.052;8.354;2023-08-06T09:15:07;99524.00;;;23.90
16956;BMP180;8594;52.052;8.354;2023-08-06T09:17:36;99525.00;;;23.70
16956;BMP180;8594;52.052;8.354;2023-08-06T09:20:12;99522.00;;;24.10
16956;BMP180;8594;52.052;8.354;2023-08-06T09:22:39;99520.00;;;24.00
16956;BMP180;8594;52.052;8.354;2023-08-06T09:25:08;99515.00;;;24.40
16956;BMP180;8594;52.052;8.354;2023-08-06T09:27:36;99508.00;;;24.70
16956;BMP180;8594;52.052;8.354;2023-08-06T09:30:06;99509.00;;;25.10
16956;BMP180;8594;52.052;8.354;2023-08-06T09:32:48;99515.00;;;25.10
16956;BMP180;8594;52.052;8.354;2023-08-06T09:35:17;99516.00;;;24.70
16956;BMP180;8594;52.052;8.354;2023-08-06T09:37:45;99523.00;;;24.30
16956;BMP180;8594;52.052;8.354;2023-08-06T09:40:26;99521.00;;;24.60
16956;BMP180;8594;52.052;8.354;2023-08-06T09:42:54;99525.00;;;24.20
16956;BMP180;8594;52.052;8.354;2023-08-06T09:45:21;99524.00;;;24.60
16956;BMP180;8594;52.052;8.354;2023-08-06T09:47:50;99518.00;;;24.60
16956;BMP180;8594;52.052;8.354;2023-08-06T09:50:17;99513.00;;;24.30
16956;BMP180;8594;52.052;8.354;2023-08-06T09:52:46;99525.00;;;24.30
16956;BMP180;8594;52.052;8.354;2023-08-06T09:55:14;99520.00;;;24.50
16956;BMP180;8594;52.052;8.354;2023-08-06T09:57:43;99525.00;;;24.60
16956;BMP180;8594;52.052;8.354;2023-08-06T10:00:11;99526.00;;;24.30
16956;BMP180;8594;52.052;8.354;2023-08-06T10:02:40;99521.00;;;24.20
16956;BMP180;8594;52.052;8.354;2023-08-06T10:05:09;99526.00;;;24.20
16956;BMP180;8594;52.052;8.354;2023-08-06T10:07:36;99521.00;;;24.20
16956;BMP180;8594;52.052;8.354;2023-08-06T10:10:06;99524.00;;;24.20
16956;BMP180;8594;52.052;8.354;2023-08-06T10:12:38;99510.00;;;24.40
16956;BMP180;8594;52.052;8.354;2023-08-06T10:15:10;99508.00;;;24.70
16956;BMP180;8594;52.052;8.354;2023-08-06T10:17:40;99508.00;;;24.70
16956;BMP180;8594;52.052;8.354;2023-08-06T10:20:10;99509.00;;;24.90
16956;BMP180;8594;52.052;8.354;2023-08-06T10:22:42;99503.00;;;24.60
16956;BMP180;8594;52.052;8.354;2023-08-06T10:25:09;99496.00;;;24.80
16956;BMP180;8594;52.052;8.354;2023-08-06T10:27:41;99507.00;;;25.00
16956;BMP180;8594;52.052;8.354;2023-08-06T10:30:24;99499.00;;;24.80
16956;BMP180;8594;52.052;8.354;2023-08-06T10:32:53;99494.00;;;25.40
16956;BMP180;8594;52.052;8.354;2023-08-06T10:35:35;99488.00;;;26.00
16956;BMP180;8594;52.052;8.354;2023-08-06T10:38:08;99495.00;;;25.90
16956;BMP180;8594;52.052;8.354;2023-08-06T10:40:37;99489.00;;;26.50
16956;BMP180;8594;52.052;8.354;2023-08-06T10:43:06;99495.00;;;26.00
16956;BMP180;8594;52.052;8.354;2023-08-06T10:45:35;99494.00;;;25.90
16956;BMP180;8594;52.052;8.354;2023-08-06T10:48:03;99491.00;;;26.10
16956;BMP180;8594;52.052;8.354;2023-08-06T10:50:32;99495.00;;;26.60
16956;BMP180;8594;52.052;8.354;2023-08-06T10:53:04;99506.00;;;26.30
16956;BMP180;8594;52.052;8.354;2023-08-06T10:55:32;99495.00;;;26.10
16956;BMP180;8594;52.052;8.354;2023-08-06T10:57:59;99498.00;;;25.80
16956;BMP180;8594;52.052;8.354;2023-08-06T11:00:26;99496.00;;;25.90
16956;BMP180;8594;52.052;8.354;2023-08-06T11:02:53;99486.00;;;26.00
16956;BMP180;8594;52.052;8.354;2023-08-06T11:05:21;99492.00;;;25.80
16956;BMP180;8594;52.052;8.354;2023-08-06T11:07:49;99487.00;;;26.50
16956;BMP180;8594;52.052;8.354;2023-08-06T11:10:17;99495.00;;;26.90
16956;BMP180;8594;52.052;8.354;2023-08-06T11:12:44;99490.00;;;26.80
16956;BMP180;8594;52.052;8.354;2023-08-06T11:15:11;99486.00;;;27.00
16956;BMP180;8594;52.052;8.354;2023-08-06T11:17:40;99479.00;;;27.50
16956;BMP180;8594;52.052;8.354;2023-08-06T11:20:09;99470.00;;;27.80
16956;BMP180;8594;52.052;8.354;2023-08-06T11:22:37;99475.00;;;27.90
16956;BMP180;8594;52.052;8.354;2023-08-06T11:25:07;99484.00;;;27.00
16956;BMP180;8594;52.052;8.354;2023-08-06T11:27:34;99485.00;;;26.80
16956;BMP180;8594;52.052;8.354;2023-08-06T11:30:01;99482.00;;;26.60
16956;BMP180;8594;52.052;8.354;2023-08-06T11:32:28;99477.00;;;26.50
16956;BMP180;8594;52.052;8.354;2023-08-06T11:34:56;99488.00;;;26.30
16956;BMP180;8594;52.052;8.354;2023-08-06T11:37:23;99489.00;;;25.50
16956;BMP180;8594;52.052;8.354;2023-08-06T11:39:51;99489.00;;;25.90
16956;BMP180;8594;52.052;8.354;2023-08-06T11:42:20;99483.00;;;25.80
16956;BMP180;8594;52.052;8.354;2023-08-06T11:44:47;99486.00;;;25.30
16956;BMP180;8594;52.052;8.354;2023-08-06T11:47:16;99483.00;;;25.10
16956;BMP180;8594;52.052;8.354;2023-08-06T11:49:46;99482.00;;;25.40
16956;BMP180;8594;52.052;8.354;2023-08-06T11:52:18;99479.00;;;25.00
16956;BMP180;8594;52.052;8.354;2023-08-06T11:54:47;99478.00;;;25.40
16956;BMP180;8594;52.052;8.354;2023-08-06T11:57:15;99472.00;;;25.30
16956;BMP180;8594;52.052;8.354;2023-08-06T11:59:45;99469.00;;;25.10
16956;BMP180;8594;52.052;8.354;2023-08-06T12:02:11;99466.00;;;25.30
16956;BMP180;8594;52.052;8.354;2023-08-06T12:05:02;99465.00;;;24.90
16956;BMP180;8594;52.052;8.354;2023-08-06T12:07:31;99458.00;;;24.70
16956;BMP180;8594;52.052;8.354;2023-08-06T12:09:59;99457.00;;;25.20
16956;BMP180;8594;52.052;8.354;2023-08-06T12:12:27;99448.00;;;25.70
16956;BMP180;8594;52.052;8.354;2023-08-06T12:14:55;99455.00;;;25.10
16956;BMP180;8594;52.052;8.354;2023-08-06T12:17:24;99452.00;;;25.70
16956;BMP180;8594;52.052;8.354;2023-08-06T12:19:51;99462.00;;;25.60
16956;BMP180;8594;52.052;8.354;2023-08-06T12:22:18;99455.00;;;25.60
16956;BMP180;8594;52.052;8.354;2023-08-06T12:24:46;99448.00;;;25.80
16956;BMP180;8594;52.052;8.354;2023-08-06T12:27:14;99444.00;;;26.60
16956;BMP180;8594;52.052;8.354;2023-08-06T12:29:43;99460.00;;;26.40
16956;BMP180;8594;52.052;8.354;2023-08-06T12:32:12;99455.00;;;26.60
16956;BMP180;8594;52.052;8.354;2023-08-06T12:34:39;99451.00;;;26.40
16956;BMP180;8594;52.052;8.354;2023-08-06T12:37:06;99445.00;;;26.40
16956;BMP180;8594;52.052;8.354;2023-08-06T12:39:33;99438.00;;;26.10
16956;BMP180;8594;52.052;8.354;2023-08-06T12:42:01;99448.00;;;27.00
16956;BMP180;8594;52.052;8.354;2023-08-06T12:44:28;99448.00;;;27.00
16956;BMP180;8594;52.052;8.354;2023-08-06T12:46:55;99456.00;;;26.80
16956;BMP180;8594;52.052;8.354;2023-08-06T12:49:25;99453.00;;;27.00
16956;BMP180;8594;52.052;8.354;2023-08-06T12:51:53;99450.00;;;26.00
16956;BMP180;8594;52.052;8.354;2023-08-06T12:54:20;99451.00;;;26.10
16956;BMP180;8594;52.052;8.354;2023-08-06T12:56:48;99454.00;;;26.20
16956;BMP180;8594;52.052;8.354;2023-08-06T12:59:17;99453.00;;;26.00
16956;BMP180;8594;52.052;8.354;2023-08-06T13:01:44;99459.00;;;25.80
16956;BMP180;8594;52.052;8.354;2023-08-06T13:04:13;99466.00;;;25.60
16956;BMP180;8594;52.052;8.354;2023-08-06T13:06:41;99468.00;;;25.70
16956;BMP180;8594;52.052;8.354;2023-08-06T13:09:09;99468.00;;;25.80
16956;BMP180;8594;52.052;8.354;2023-08-06T13:11:36;99461.00;;;25.80
16956;BMP180;8594;52.052;8.354;2023-08-06T13:14:06;99472.00;;;25.60
16956;BMP180;8594;52.052;8.354;2023-08-06T13:16:34;99473.00;;;25.70
16956;BMP180;8594;52.052;8.354;2023-08-06T13:19:01;99472.00;;;25.40
16956;BMP180;8594;52.052;8.354;2023-08-06T13:21:33;99467.00;;;25.30
16956;BMP180;8594;52.052;8.354;2023-08-06T13:24:03;99468.00;;;25.30
16956;BMP180;8594;52.052;8.354;2023-08-06T13:26:30;99474.00;;;25.50
16956;BMP180;8594;52.052;8.354;2023-08-06T13:28:58;99484.00;;;25.20
16956;BMP180;8594;52.052;8.354;2023-08-06T13:31:26;99486.00;;;25.10
16956;BMP180;8594;52.052;8.354;2023-08-06T13:33:55;99482.00;;;25.20
16956;BMP180;8594;52.052;8.354;2023-08-06T13:36:23;99476.00;;;25.30
16956;BMP180;8594;52.052;8.354;2023-08-06T13:38:50;99481.00;;;25.20
16956;BMP180;8594;52.052;8.354;2023-08-06T13:41:19;99479.00;;;24.90
16956;BMP180;8594;52.052;8.354;2023-08-06T13:43:46;99491.00;;;25.20
16956;BMP180;8594;52.052;8.354;2023-08-06T13:46:13;99493.00;;;25.10
16956;BMP180;8594;52.052;8.354;2023-08-06T13:48:44;99491.00;;;25.20
16956;BMP180;8594;52.052;8.354;2023-08-06T13:51:12;99486.00;;;25.00
16956;BMP180;8594;52.052;8.354;2023-08-06T13:53:39;99488.00;;;25.00
16956;BMP180;8594;52.052;8.354;2023-08-06T13:56:08;99490.00;;;24.20
16956;BMP180;8594;52.052;8.354;2023-08-06T13:58:37;99490.00;;;24.10
16956;BMP180;8594;52.052;8.354;2023-08-06T14:01:04;99491.00;;;24.30
16956;BMP180;8594;52.052;8.354;2023-08-06T14:03:31;99491.00;;;24.10
16956;BMP180;8594;52.052;8.354;2023-08-06T14:05:57;99490.00;;;24.10
16956;BMP180;8594;52.052;8.354;2023-08-06T14:08:25;99500.00;;;23.50
16956;BMP180;8594;52.052;8.354;2023-08-06T14:10:52;99510.00;;;23.60
16956;BMP180;8594;52.052;8.354;2023-08-06T14:13:19;99520.00;;;23.40
16956;BMP180;8594;52.052;8.354;2023-08-06T14:15:48;99523.00;;;24.20
16956;BMP180;8594;52.052;8.354;2023-08-06T14:18:15;99521.00;;;24.50
16956;BMP180;8594;52.052;8.354;2023-08-06T14:20:43;99528.00;;;24.40
16956;BMP180;8594;52.052;8.354;2023-08-06T14:23:11;99531.00;;;24.20
16956;BMP180;8594;52.052;8.354;2023-08-06T14:25:38;99532.00;;;24.30